createdAt,value
2023-10-09T00:00:37.295Z,1.55
2023-10-09T00:03:07.765Z,1.60
2023-10-09T00:05:47.383Z,1.98
2023-10-09T00:08:19.799Z,1.90
2023-10-09T00:10:50.493Z,2.08
2023-10-09T00:13:19.739Z,2.15
2023-10-09T00:15:53.532Z,1.98
2023-10-09T00:18:30.343Z,2.10
2023-10-09T00:21:12.933Z,1.60
2023-10-09T00:23:41.778Z,1.95
2023-10-09T00:26:17.420Z,2.08
2023-10-09T00:28:53.272Z,1.03
2023-10-09T00:31:31.274Z,1.90
2023-10-09T00:34:09.087Z,2.15
2023-10-09T00:36:51.509Z,2.10
2023-10-09T00:39:34.552Z,2.22
2023-10-09T00:42:04.223Z,1.83
2023-10-09T00:44:39.729Z,2.35
2023-10-09T00:47:21.587Z,1.80
2023-10-09T00:49:52.044Z,1.95
2023-10-09T00:52:30.608Z,2.10
2023-10-09T00:55:01.984Z,2.10
2023-10-09T00:57:34.865Z,1.60
2023-10-09T01:00:14.127Z,2.10
2023-10-09T01:02:45.366Z,2.40
2023-10-09T01:05:21.007Z,2.00
2023-10-09T01:07:59.229Z,1.83
2023-10-09T01:10:35.170Z,1.98
2023-10-09T01:13:04.349Z,2.00
2023-10-09T01:15:45.982Z,2.22
2023-10-09T01:18:15.999Z,2.17
2023-10-09T01:20:46.696Z,2.13
2023-10-09T01:23:16.721Z,2.28
2023-10-09T01:25:46.330Z,2.13
2023-10-09T01:28:16.819Z,2.05
2023-10-09T01:30:46.894Z,2.25
2023-10-09T01:33:23.563Z,2.08
2023-10-09T01:35:57.248Z,2.15
2023-10-09T01:38:41.454Z,2.45
2023-10-09T01:41:17.075Z,2.08
2023-10-09T01:43:46.161Z,2.50
2023-10-09T01:46:17.527Z,2.22
2023-10-09T01:48:47.847Z,2.33
2023-10-09T01:51:18.290Z,2.65
2023-10-09T01:53:48.941Z,2.65
2023-10-09T01:56:17.247Z,2.22
2023-10-09T01:58:48.455Z,2.20
2023-10-09T02:01:17.103Z,2.10
2023-10-09T02:03:46.372Z,2.40
2023-10-09T02:06:31.057Z,2.20
2023-10-09T02:09:00.664Z,2.17
2023-10-09T02:11:40.330Z,2.08
2023-10-09T02:14:20.336Z,2.58
2023-10-09T02:17:03.581Z,2.88
2023-10-09T02:19:35.371Z,2.83
2023-10-09T02:22:13.602Z,2.33
2023-10-09T02:24:51.077Z,2.97
2023-10-09T02:27:37.308Z,2.20
2023-10-09T02:30:16.327Z,2.88
2023-10-09T02:32:45.659Z,2.92
2023-10-09T02:35:37.662Z,2.60
2023-10-09T02:38:08.346Z,2.45
2023-10-09T02:41:01.649Z,2.90
2023-10-09T02:43:32.293Z,2.20
2023-10-09T02:46:01.087Z,3.03
2023-10-09T02:48:31.866Z,3.00
2023-10-09T02:51:00.060Z,2.95
2023-10-09T02:53:30.918Z,2.97
2023-10-09T02:56:13.788Z,3.35
2023-10-09T02:58:43.969Z,2.80
2023-10-09T03:01:14.570Z,2.80
2023-10-09T03:03:46.813Z,2.90
2023-10-09T03:06:20.266Z,3.08
2023-10-09T03:08:49.169Z,2.83
2023-10-09T03:11:20.080Z,2.70
2023-10-09T03:13:48.735Z,2.50
2023-10-09T03:16:22.639Z,3.03
2023-10-09T03:18:54.550Z,3.10
2023-10-09T03:21:22.823Z,2.67
2023-10-09T03:23:51.540Z,2.58
2023-10-09T03:26:22.690Z,3.30
2023-10-09T03:28:51.460Z,2.92
2023-10-09T03:31:19.496Z,2.70
2023-10-09T03:33:48.472Z,2.80
2023-10-09T03:36:18.055Z,2.30
2023-10-09T03:38:46.039Z,2.60
2023-10-09T03:41:17.377Z,2.97
2023-10-09T03:43:47.506Z,2.75
2023-10-09T03:46:21.941Z,2.80
2023-10-09T03:48:50.160Z,2.72
2023-10-09T03:51:22.628Z,2.88
2023-10-09T03:53:51.958Z,1.77
2023-10-09T03:56:22.252Z,2.97
2023-10-09T03:58:54.428Z,2.70
2023-10-09T04:01:29.488Z,2.60
2023-10-09T04:04:01.347Z,2.70
2023-10-09T04:06:33.200Z,2.80
2023-10-09T04:09:15.214Z,2.58
2023-10-09T04:11:44.411Z,2.40
2023-10-09T04:14:26.004Z,2.05
2023-10-09T04:17:05.098Z,2.22
2023-10-09T04:19:40.279Z,2.13
2023-10-09T04:22:10.148Z,2.05
2023-10-09T04:24:42.654Z,2.33
2023-10-09T04:27:10.807Z,2.63
2023-10-09T04:29:40.683Z,2.20
2023-10-09T04:32:19.062Z,2.15
2023-10-09T04:34:50.676Z,2.33
2023-10-09T04:37:37.930Z,2.47
2023-10-09T04:40:13.268Z,2.58
2023-10-09T04:42:47.905Z,1.90
2023-10-09T04:45:34.082Z,2.03
2023-10-09T04:48:08.077Z,2.22
2023-10-09T04:50:46.598Z,2.40
2023-10-09T04:53:29.944Z,2.53
2023-10-09T04:55:58.457Z,1.88
2023-10-09T04:58:27.515Z,2.50
2023-10-09T05:01:13.878Z,2.33
2023-10-09T05:03:46.313Z,2.00
2023-10-09T05:06:44.105Z,2.63
2023-10-09T05:09:16.130Z,3.00
2023-10-09T05:12:11.012Z,2.53
2023-10-09T05:14:46.652Z,2.58
2023-10-09T05:17:18.849Z,2.50
2023-10-09T05:20:18.651Z,2.63
2023-10-09T05:22:58.180Z,2.38
2023-10-09T05:25:56.748Z,2.10
2023-10-09T05:28:26.844Z,2.05
2023-10-09T05:31:07.546Z,2.25
2023-10-09T05:33:38.252Z,2.40
2023-10-09T05:36:18.473Z,2.58
2023-10-09T05:38:59.752Z,2.50
2023-10-09T05:41:48.676Z,2.60
2023-10-09T05:44:34.219Z,2.80
2023-10-09T05:47:34.318Z,2.28
2023-10-09T05:50:17.610Z,2.83
2023-10-09T05:53:06.574Z,2.55
2023-10-09T05:55:52.617Z,2.33
2023-10-09T05:59:04.794Z,2.30
2023-10-09T06:01:50.241Z,2.13
2023-10-09T06:04:19.263Z,2.60
2023-10-09T06:06:57.672Z,2.60
2023-10-09T06:09:49.772Z,2.13
2023-10-09T06:12:53.130Z,3.20
2023-10-09T06:15:33.884Z,2.90
2023-10-09T06:18:22.321Z,3.20
2023-10-09T06:21:09.683Z,3.00
2023-10-09T06:24:07.974Z,2.90
2023-10-09T06:26:36.024Z,3.10
2023-10-09T06:29:17.694Z,3.17
2023-10-09T06:32:00.537Z,2.90
2023-10-09T06:34:36.306Z,3.17
2023-10-09T06:37:07.822Z,3.67
2023-10-09T06:40:13.268Z,2.67
2023-10-09T06:42:45.529Z,2.97
2023-10-09T06:45:17.487Z,2.60
2023-10-09T06:47:57.346Z,3.03
2023-10-09T06:50:48.241Z,2.95
2023-10-09T06:53:26.429Z,2.65
2023-10-09T06:56:06.822Z,2.72
2023-10-09T06:58:43.351Z,2.88
2023-10-09T07:01:29.478Z,2.97
2023-10-09T07:04:19.879Z,2.63
2023-10-09T07:06:52.167Z,2.85
2023-10-09T07:09:23.585Z,2.72
2023-10-09T07:12:05.078Z,2.72
2023-10-09T07:14:51.207Z,2.50
2023-10-09T07:17:24.438Z,2.63
2023-10-09T07:20:09.936Z,2.45
2023-10-09T07:22:53.699Z,2.63
2023-10-09T07:25:43.250Z,2.70
2023-10-09T07:28:37.955Z,3.20
2023-10-09T07:31:10.199Z,3.58
2023-10-09T07:36:39.418Z,3.30
2023-10-09T07:39:25.008Z,2.95
2023-10-09T07:42:03.165Z,3.60
2023-10-09T07:44:37.993Z,3.08
2023-10-09T07:47:18.184Z,2.95
2023-10-09T07:49:53.475Z,3.40
2023-10-09T07:52:27.438Z,3.13
2023-10-09T07:55:02.869Z,3.30
2023-10-09T07:57:40.709Z,3.17
2023-10-09T08:00:29.558Z,3.10
2023-10-09T08:03:01.663Z,2.85
2023-10-09T08:05:34.475Z,2.95
2023-10-09T08:08:40.431Z,3.30
2023-10-09T08:11:28.714Z,3.38
2023-10-09T08:14:02.175Z,3.38
2023-10-09T08:16:37.695Z,3.22
2023-10-09T08:19:32.022Z,3.38
2023-10-09T08:22:17.365Z,3.58
2023-10-09T08:24:57.043Z,3.65
2023-10-09T08:27:48.319Z,3.80
2023-10-09T08:30:30.707Z,3.50
2023-10-09T08:35:44.358Z,3.72
2023-10-09T08:38:12.608Z,3.53
2023-10-09T08:40:44.323Z,3.70
2023-10-09T08:43:15.895Z,3.10
2023-10-09T08:45:47.890Z,3.72
2023-10-09T08:48:17.600Z,3.25
2023-10-09T08:50:47.110Z,4.03
2023-10-09T08:53:17.299Z,3.50
2023-10-09T08:55:47.512Z,3.75
2023-10-09T08:58:20.563Z,3.20
2023-10-09T09:00:49.132Z,3.53
2023-10-09T09:03:18.355Z,3.03
2023-10-09T09:05:50.817Z,2.85
2023-10-09T09:08:29.744Z,3.20
2023-10-09T09:11:12.912Z,3.17
2023-10-09T09:13:43.358Z,3.17
2023-10-09T09:16:22.725Z,3.35
2023-10-09T09:19:02.034Z,3.50
2023-10-09T09:21:30.352Z,3.60
2023-10-09T09:24:02.278Z,3.42
2023-10-09T09:26:46.522Z,3.00
2023-10-09T09:29:15.607Z,2.85
2023-10-09T09:31:55.038Z,3.20
2023-10-09T09:34:27.110Z,3.22
2023-10-09T09:36:57.451Z,3.22
2023-10-09T09:39:42.018Z,3.30
2023-10-09T09:42:15.933Z,3.88
2023-10-09T09:44:47.086Z,2.95
2023-10-09T09:47:24.971Z,4.13
2023-10-09T09:50:00.982Z,3.70
2023-10-09T09:52:39.341Z,3.78
2023-10-09T09:55:15.441Z,3.60
2023-10-09T09:57:52.689Z,3.90
2023-10-09T10:00:31.989Z,3.47
2023-10-09T10:03:07.069Z,3.67
2023-10-09T10:05:37.077Z,4.07
2023-10-09T10:08:13.355Z,4.35
2023-10-09T10:10:51.233Z,3.90
2023-10-09T10:14:07.586Z,4.10
2023-10-09T10:17:17.761Z,4.60
2023-10-09T10:20:26.526Z,4.10
2023-10-09T10:23:20.513Z,3.83
2023-10-09T10:25:51.257Z,4.10
2023-10-09T10:28:40.593Z,4.03
2023-10-09T10:31:10.936Z,4.10
2023-10-09T10:34:11.667Z,4.65
2023-10-09T10:36:43.841Z,4.10
2023-10-09T10:39:13.101Z,4.50
2023-10-09T10:41:52.001Z,4.25
2023-10-09T10:44:39.219Z,4.88
2023-10-09T10:47:23.287Z,4.70
2023-10-09T10:49:59.383Z,4.78
2023-10-09T10:52:43.408Z,4.32
2023-10-09T10:55:31.924Z,4.57
2023-10-09T10:58:03.526Z,3.65
2023-10-09T11:00:51.978Z,4.40
2023-10-09T11:03:25.058Z,4.22
2023-10-09T11:08:33.318Z,4.68
2023-10-09T11:11:19.446Z,4.53
2023-10-09T11:13:57.786Z,4.68
2023-10-09T11:16:44.249Z,4.85
2023-10-09T11:19:30.375Z,4.63
2023-10-09T11:25:14.106Z,5.20
2023-10-09T11:27:51.998Z,5.18
2023-10-09T11:30:33.762Z,5.13
2023-10-09T11:33:15.418Z,4.80
2023-10-09T11:35:46.302Z,5.13
2023-10-09T11:38:22.644Z,5.20
2023-10-09T11:41:06.727Z,5.53
2023-10-09T11:43:54.567Z,4.60
2023-10-09T11:46:38.006Z,5.90
2023-10-09T11:49:21.731Z,6.07
2023-10-09T11:52:10.400Z,4.63
2023-10-09T11:54:37.629Z,4.72
2023-10-09T11:57:06.995Z,4.38
2023-10-09T11:59:38.947Z,4.78
2023-10-09T12:02:07.277Z,5.43
2023-10-09T12:04:35.343Z,5.55
2023-10-09T12:07:08.698Z,5.57
2023-10-09T12:12:07.472Z,5.57
2023-10-09T12:14:36.118Z,6.25
2023-10-09T12:17:06.806Z,5.45
2023-10-09T12:19:35.455Z,5.22
2023-10-09T12:22:05.038Z,6.43
2023-10-09T12:24:34.228Z,6.13
2023-10-09T12:27:02.617Z,5.32
2023-10-09T12:29:31.990Z,5.70
2023-10-09T12:32:00.305Z,5.22
2023-10-09T12:34:28.857Z,5.75
2023-10-09T12:36:57.134Z,5.65
2023-10-09T12:39:25.071Z,5.30
2023-10-09T12:41:54.714Z,5.63
2023-10-09T12:44:22.734Z,5.07
2023-10-09T12:46:54.264Z,5.43
2023-10-09T12:49:26.400Z,5.88
2023-10-09T12:51:54.919Z,5.20
2023-10-09T12:54:27.986Z,6.20
2023-10-09T12:59:25.427Z,5.90
2023-10-09T13:01:59.034Z,6.60
2023-10-09T13:04:33.895Z,6.63
2023-10-09T13:07:05.642Z,7.47
2023-10-09T13:09:37.311Z,6.93
2023-10-09T13:12:05.513Z,7.55
2023-10-09T13:14:35.233Z,7.32
2023-10-09T13:17:11.219Z,7.35
2023-10-09T13:19:39.625Z,7.78
2023-10-09T13:22:14.086Z,7.93
2023-10-09T13:24:42.986Z,7.90
2023-10-09T13:27:11.856Z,7.35
2023-10-09T13:29:41.750Z,6.93
2023-10-09T13:32:16.254Z,7.25
2023-10-09T13:34:45.892Z,8.00
2023-10-09T13:37:14.919Z,7.97
2023-10-09T13:39:53.266Z,6.70
2023-10-09T13:42:26.026Z,7.95
2023-10-09T13:44:55.140Z,7.25
2023-10-09T13:47:30.468Z,7.82
2023-10-09T13:49:58.873Z,8.43
2023-10-09T13:52:28.141Z,8.00
2023-10-09T13:54:56.280Z,7.55
2023-10-09T13:57:32.350Z,7.60
2023-10-09T14:00:01.326Z,7.65
2023-10-09T14:02:30.929Z,6.60
2023-10-09T14:05:01.972Z,7.93
2023-10-09T14:07:30.137Z,7.07
2023-10-09T14:10:08.314Z,7.80
2023-10-09T14:12:41.254Z,7.00
2023-10-09T14:15:12.582Z,7.57
2023-10-09T14:17:44.054Z,7.55
2023-10-09T14:23:08.578Z,7.22
2023-10-09T14:25:38.750Z,6.97
2023-10-09T14:28:08.706Z,7.43
2023-10-09T14:30:42.986Z,6.90
2023-10-09T14:33:14.366Z,7.15
2023-10-09T14:35:43.079Z,7.40
2023-10-09T14:38:13.850Z,7.60
2023-10-09T14:40:45.179Z,6.93
2023-10-09T14:43:20.155Z,7.97
2023-10-09T14:45:50.678Z,7.45
2023-10-09T14:48:19.659Z,7.68
2023-10-09T14:50:54.054Z,7.65
2023-10-09T14:53:28.015Z,6.78
2023-10-09T14:56:00.765Z,7.38
2023-10-09T14:58:30.281Z,6.38
2023-10-09T15:00:58.998Z,6.30
2023-10-09T15:03:29.391Z,6.25
2023-10-09T15:05:57.346Z,6.65
2023-10-09T15:08:28.426Z,6.55
2023-10-09T15:10:57.459Z,7.35
2023-10-09T15:13:28.892Z,7.00
2023-10-09T15:15:57.434Z,7.30
2023-10-09T15:18:26.637Z,7.57
2023-10-09T15:20:54.652Z,7.45
2023-10-09T15:23:22.542Z,7.53
2023-10-09T15:25:53.238Z,7.22
2023-10-09T15:28:21.972Z,6.72
2023-10-09T15:30:50.622Z,6.93
2023-10-09T15:33:19.917Z,6.22
2023-10-09T15:35:48.967Z,6.68
2023-10-09T15:38:16.975Z,7.30
2023-10-09T15:40:45.359Z,7.00
2023-10-09T15:43:15.213Z,6.55
2023-10-09T15:45:43.716Z,6.50
2023-10-09T15:48:12.575Z,6.85
2023-10-09T15:50:41.083Z,6.70
2023-10-09T15:53:09.563Z,6.93
2023-10-09T15:55:39.304Z,6.95
2023-10-09T15:58:09.860Z,6.65
2023-10-09T16:00:40.567Z,6.07
2023-10-09T16:03:11.177Z,6.97
2023-10-09T16:05:41.874Z,6.57
2023-10-09T16:08:10.663Z,6.68
2023-10-09T16:10:38.791Z,6.13
2023-10-09T16:13:11.023Z,6.47
2023-10-09T16:15:45.322Z,7.05
2023-10-09T16:18:13.355Z,7.03
2023-10-09T16:20:41.295Z,6.40
2023-10-09T16:23:10.844Z,7.47
2023-10-09T16:25:40.044Z,7.25
2023-10-09T16:28:09.876Z,7.75
2023-10-09T16:30:38.297Z,7.85
2023-10-09T16:33:09.439Z,7.18
2023-10-09T16:35:38.850Z,7.80
2023-10-09T16:38:13.153Z,8.00
2023-10-09T16:40:47.933Z,8.52
2023-10-09T16:43:16.121Z,8.20
2023-10-09T16:45:44.935Z,8.57
2023-10-09T16:48:16.370Z,8.20
2023-10-09T16:50:47.962Z,8.60
2023-10-09T16:53:17.942Z,8.80
2023-10-09T16:55:46.291Z,9.15
2023-10-09T16:58:16.447Z,9.00
2023-10-09T17:00:47.499Z,9.30
2023-10-09T17:03:18.680Z,9.10
2023-10-09T17:05:59.065Z,9.13
2023-10-09T17:08:30.829Z,8.27
2023-10-09T17:10:59.213Z,8.75
2023-10-09T17:13:27.624Z,8.88
2023-10-09T17:15:55.890Z,8.90
2023-10-09T17:18:26.457Z,9.13
2023-10-09T17:20:55.909Z,8.65
2023-10-09T17:23:24.049Z,9.02
2023-10-09T17:25:59.001Z,8.57
2023-10-09T17:28:27.555Z,8.80
2023-10-09T17:31:02.728Z,9.05
2023-10-09T17:33:32.792Z,9.30
2023-10-09T17:36:02.427Z,9.30
2023-10-09T17:38:32.337Z,9.75
2023-10-09T17:41:02.155Z,9.18
2023-10-09T17:43:31.699Z,8.88
2023-10-09T17:45:59.650Z,9.20
2023-10-09T17:48:27.537Z,9.75
2023-10-09T17:50:58.308Z,9.70
2023-10-09T17:53:30.211Z,9.48
2023-10-09T17:55:58.287Z,9.18
2023-10-09T17:58:27.545Z,9.15
2023-10-09T18:00:59.364Z,8.80
2023-10-09T18:03:28.928Z,9.13
2023-10-09T18:05:58.691Z,9.15
2023-10-09T18:08:27.665Z,8.35
2023-10-09T18:11:00.879Z,8.40
2023-10-09T18:13:29.260Z,8.50
2023-10-09T18:16:08.948Z,8.80
2023-10-09T18:18:37.861Z,8.57
2023-10-09T18:21:08.925Z,9.57
2023-10-09T18:23:45.281Z,8.68
2023-10-09T18:26:15.673Z,8.13
2023-10-09T18:28:46.138Z,8.60
2023-10-09T18:31:17.439Z,8.73
2023-10-09T18:33:47.097Z,9.02
2023-10-09T18:36:19.018Z,9.27
2023-10-09T18:38:52.053Z,8.68
2023-10-09T18:43:50.415Z,9.10
2023-10-09T18:46:19.810Z,9.52
2023-10-09T18:48:48.084Z,8.77
2023-10-09T18:51:18.768Z,8.35
2023-10-09T18:53:47.882Z,8.25
2023-10-09T18:56:16.537Z,9.25
2023-10-09T18:58:45.073Z,9.60
2023-10-09T19:01:15.011Z,8.57
2023-10-09T19:03:43.296Z,7.80
2023-10-09T19:06:13.663Z,8.52
2023-10-09T19:08:42.955Z,9.07
2023-10-09T19:11:11.439Z,9.23
2023-10-09T19:13:40.740Z,9.48
2023-10-09T19:16:09.867Z,8.85
2023-10-09T19:18:39.076Z,7.57
2023-10-09T19:21:09.681Z,7.68
2023-10-09T19:23:37.922Z,8.27
2023-10-09T19:26:07.940Z,7.72
2023-10-09T19:28:38.986Z,8.00
2023-10-09T19:31:09.479Z,7.53
2023-10-09T19:33:38.957Z,7.53
2023-10-09T19:36:12.409Z,7.88
2023-10-09T19:38:40.799Z,8.95
2023-10-09T19:41:12.127Z,8.25
2023-10-09T19:43:40.138Z,8.23
2023-10-09T19:46:09.089Z,8.10
2023-10-09T19:48:37.157Z,8.80
2023-10-09T19:51:06.339Z,9.70
2023-10-09T19:53:37.526Z,8.95
2023-10-09T19:56:09.900Z,8.95
2023-10-09T19:58:40.996Z,9.35
2023-10-09T20:01:09.744Z,8.68
2023-10-09T20:03:37.724Z,8.80
2023-10-09T20:06:06.507Z,8.23
2023-10-09T20:08:35.481Z,9.07
2023-10-09T20:11:08.812Z,9.90
2023-10-09T20:16:09.314Z,9.15
2023-10-09T20:18:37.564Z,9.77
2023-10-09T20:21:10.740Z,10.65
2023-10-09T20:23:42.179Z,10.05
2023-10-09T20:26:15.800Z,8.98
2023-10-09T20:28:44.628Z,8.82
2023-10-09T20:31:14.141Z,9.38
2023-10-09T20:33:43.648Z,10.98
2023-10-09T20:36:16.764Z,10.88
2023-10-09T20:38:47.668Z,10.10
2023-10-09T20:41:17.260Z,9.48
2023-10-09T20:43:45.384Z,9.80
2023-10-09T20:46:16.621Z,10.20
2023-10-09T20:48:46.156Z,9.60
2023-10-09T20:51:16.196Z,11.07
2023-10-09T20:53:44.636Z,10.52
2023-10-09T20:56:12.795Z,10.00
2023-10-09T20:58:42.420Z,10.38
2023-10-09T21:01:15.657Z,10.30
2023-10-09T21:03:47.171Z,10.07
2023-10-09T21:06:15.596Z,9.70
2023-10-09T21:08:43.899Z,10.93
2023-10-09T21:11:11.940Z,10.95
2023-10-09T21:13:40.798Z,11.10
2023-10-09T21:16:13.001Z,11.18
2023-10-09T21:18:41.483Z,11.17
2023-10-09T21:21:13.555Z,11.30
2023-10-09T21:23:42.591Z,11.40
2023-10-09T21:26:17.068Z,11.23
2023-10-09T21:28:45.326Z,11.05
2023-10-09T21:31:13.818Z,11.52
2023-10-09T21:33:41.749Z,11.43
2023-10-09T21:36:11.266Z,11.77
2023-10-09T21:38:39.788Z,11.98
2023-10-09T21:41:13.365Z,11.68
2023-10-09T21:43:41.610Z,12.40
2023-10-09T21:46:10.756Z,12.38
2023-10-09T21:48:39.985Z,11.77
2023-10-09T21:51:09.821Z,11.85
2023-10-09T21:53:40.752Z,12.02
2023-10-09T21:56:10.370Z,11.27
2023-10-09T21:58:39.185Z,11.43
2023-10-09T22:01:09.452Z,12.02
2023-10-09T22:03:37.860Z,12.38
2023-10-09T22:06:06.545Z,11.18
2023-10-09T22:08:35.143Z,11.68
2023-10-09T22:11:04.553Z,10.98
2023-10-09T22:13:32.496Z,10.90
2023-10-09T22:16:00.888Z,10.68
2023-10-09T22:18:30.848Z,9.70
2023-10-09T22:20:58.895Z,10.35
2023-10-09T22:23:34.393Z,11.55
2023-10-09T22:26:05.070Z,10.10
2023-10-09T22:28:34.708Z,10.73
2023-10-09T22:31:05.149Z,10.82
2023-10-09T22:33:47.022Z,10.77
2023-10-09T22:36:28.514Z,10.85
2023-10-09T22:39:06.416Z,10.90
2023-10-09T22:41:36.579Z,10.13
2023-10-09T22:44:11.683Z,10.30
2023-10-09T22:46:41.859Z,10.48
2023-10-09T22:49:15.841Z,9.35
2023-10-09T22:51:51.429Z,9.93
2023-10-09T22:54:24.339Z,9.65
2023-10-09T22:56:56.245Z,9.15
2023-10-09T22:59:27.887Z,9.40
2023-10-09T23:02:00.414Z,7.95
2023-10-09T23:04:39.064Z,9.05
2023-10-09T23:07:15.660Z,9.45
2023-10-09T23:09:50.904Z,9.02
2023-10-09T23:12:26.913Z,8.68
2023-10-09T23:14:57.053Z,8.52
2023-10-09T23:17:45.160Z,8.80
2023-10-09T23:20:17.984Z,9.10
2023-10-09T23:22:52.267Z,8.98
2023-10-09T23:25:31.071Z,8.80
2023-10-09T23:28:14.475Z,8.30
2023-10-09T23:30:44.249Z,9.07
2023-10-09T23:33:21.689Z,8.32
2023-10-09T23:35:56.421Z,8.63
2023-10-09T23:38:33.304Z,8.90
2023-10-09T23:41:04.944Z,9.02
2023-10-09T23:43:36.493Z,8.75
2023-10-09T23:46:09.137Z,8.32
2023-10-09T23:48:38.601Z,8.77
2023-10-09T23:51:13.336Z,8.18
2023-10-09T23:53:47.630Z,8.13
2023-10-09T23:56:36.048Z,7.88
2023-10-09T23:59:12.174Z,7.72
